Time;durP1;ratioP1;P1;durP2;ratioP2;P2;SDS_P1;SDS_P2;PMS_P1;PMS_P2;Temp;Humidity;BMP_temperature;BMP_pressure;BME280_temperature;BME280_humidity;BME280_pressure;Samples;Min_cycle;Max_cycle;Signal;HPM_P1;HPM_P2
2023/03/20 00:00:09;;;;;;;1.90;1.70;;;;;;;;;;5099734;28;20204;-59
2023/03/20 00:02:37;;;;;;;1.48;1.38;;;;;;;;;;5100348;28;20232;-59
2023/03/20 00:05:17;;;;;;;1.48;1.38;;;;;;;;;;5100070;28;20207;-59
2023/03/20 00:07:45;;;;;;;1.50;1.40;;;;;;;;;;5100206;28;20203;-59
2023/03/20 00:10:12;;;;;;;2.45;1.50;;;;;;;;;;5100345;28;20203;-58
2023/03/20 00:12:40;;;;;;;1.40;1.30;;;;;;;;;;5099949;28;20199;-58
2023/03/20 00:15:17;;;;;;;2.00;1.40;;;;;;;;;;5099774;28;20204;-58
2023/03/20 00:17:45;;;;;;;2.85;1.50;;;;;;;;;;5100010;28;20264;-59
2023/03/20 00:20:15;;;;;;;1.65;1.42;;;;;;;;;;5099894;28;20211;-58
2023/03/20 00:22:43;;;;;;;2.35;1.40;;;;;;;;;;5100259;28;20227;-58
2023/03/20 00:25:13;;;;;;;1.60;1.50;;;;;;;;;;5099872;28;20234;-58
2023/03/20 00:27:41;;;;;;;1.55;1.42;;;;;;;;;;5099803;28;20582;-58
2023/03/20 00:30:17;;;;;;;1.35;1.25;;;;;;;;;;5099893;28;20204;-58
2023/03/20 00:32:45;;;;;;;3.05;1.60;;;;;;;;;;5079663;28;20200;-58
2023/03/20 00:35:18;;;;;;;1.70;1.60;;;;;;;;;;5079332;28;20204;-58
2023/03/20 00:37:46;;;;;;;2.60;1.50;;;;;;;;;;5079319;28;20299;-58
2023/03/20 00:40:14;;;;;;;1.73;1.58;;;;;;;;;;5078967;28;20226;-58
2023/03/20 00:42:42;;;;;;;3.60;1.60;;;;;;;;;;5079593;28;20236;-58
2023/03/20 00:45:11;;;;;;;1.42;1.33;;;;;;;;;;5099507;28;20203;-58
2023/03/20 00:47:41;;;;;;;1.50;1.40;;;;;;;;;;5099249;28;20480;-58
2023/03/20 00:50:15;;;;;;;1.73;1.50;;;;;;;;;;5099070;28;20203;-58
2023/03/20 00:52:43;;;;;;;1.65;1.55;;;;;;;;;;5098703;28;20231;-59
2023/03/20 00:55:11;;;;;;;1.50;1.40;;;;;;;;;;5099232;28;20239;-58
2023/03/20 00:57:40;;;;;;;1.60;1.50;;;;;;;;;;5098914;28;20302;-58
2023/03/20 01:00:09;;;;;;;1.70;1.60;;;;;;;;;;5098426;28;20211;-58
2023/03/20 01:02:37;;;;;;;1.65;1.55;;;;;;;;;;5099279;28;20292;-58
2023/03/20 01:05:07;;;;;;;2.00;1.70;;;;;;;;;;5099012;28;20247;-58
2023/03/20 01:07:34;;;;;;;1.70;1.60;;;;;;;;;;5098554;28;20204;-58
2023/03/20 01:10:02;;;;;;;1.65;1.55;;;;;;;;;;5098613;28;20199;-58
2023/03/20 01:12:29;;;;;;;1.90;1.70;;;;;;;;;;5099095;28;20529;-58
2023/03/20 01:14:58;;;;;;;1.70;1.60;;;;;;;;;;5099203;28;20249;-58
2023/03/20 01:17:27;;;;;;;2.08;1.60;;;;;;;;;;5098606;28;20235;-58
2023/03/20 01:19:55;;;;;;;1.70;1.60;;;;;;;;;;5098770;28;20210;-58
2023/03/20 01:22:24;;;;;;;1.60;1.45;;;;;;;;;;5098896;28;20442;-58
2023/03/20 01:24:51;;;;;;;1.60;1.50;;;;;;;;;;5098943;28;20212;-58
2023/03/20 01:27:20;;;;;;;1.60;1.50;;;;;;;;;;5108486;28;20727;-59
2023/03/20 01:29:48;;;;;;;1.77;1.52;;;;;;;;;;5118883;28;20210;-58
2023/03/20 01:32:16;;;;;;;1.45;1.33;;;;;;;;;;5118688;28;20535;-58
2023/03/20 01:34:44;;;;;;;1.50;1.40;;;;;;;;;;5110249;28;20249;-58
2023/03/20 01:37:14;;;;;;;2.17;1.60;;;;;;;;;;5098574;28;20208;-58
2023/03/20 01:39:44;;;;;;;1.60;1.50;;;;;;;;;;5098435;28;20234;-58
2023/03/20 01:42:14;;;;;;;1.80;1.55;;;;;;;;;;5098663;28;20265;-58
2023/03/20 01:44:42;;;;;;;1.52;1.42;;;;;;;;;;5098194;28;20234;-58
2023/03/20 01:47:15;;;;;;;1.80;1.70;;;;;;;;;;5098108;28;20204;-58
2023/03/20 01:50:01;;;;;;;1.52;1.42;;;;;;;;;;5098256;28;20640;-58
2023/03/20 01:52:29;;;;;;;1.70;1.60;;;;;;;;;;5098074;28;20203;-58
2023/03/20 01:54:58;;;;;;;1.73;1.60;;;;;;;;;;5098106;28;20261;-58
2023/03/20 01:57:26;;;;;;;1.60;1.50;;;;;;;;;;5097641;28;20343;-58
2023/03/20 01:59:56;;;;;;;1.40;1.30;;;;;;;;;;5113084;28;20655;-58
2023/03/20 02:02:25;;;;;;;1.40;1.30;;;;;;;;;;5118365;28;20207;-58
2023/03/20 02:04:56;;;;;;;1.75;1.30;;;;;;;;;;5118020;28;20233;-58
2023/03/20 02:07:24;;;;;;;1.50;1.40;;;;;;;;;;5118037;28;20264;-58
2023/03/20 02:09:52;;;;;;;1.63;1.52;;;;;;;;;;5118042;28;20573;-58
2023/03/20 02:12:22;;;;;;;1.60;1.50;;;;;;;;;;5116949;28;20530;-58
2023/03/20 02:14:51;;;;;;;1.75;1.55;;;;;;;;;;5118490;28;20199;-58
2023/03/20 02:17:19;;;;;;;1.60;1.50;;;;;;;;;;5117870;28;20206;-58
2023/03/20 02:19:51;;;;;;;1.40;1.30;;;;;;;;;;5118078;28;20228;-58
2023/03/20 02:22:32;;;;;;;1.40;1.30;;;;;;;;;;5118324;28;20261;-58
2023/03/20 02:25:22;;;;;;;1.55;1.45;;;;;;;;;;5117778;28;20313;-58
2023/03/20 02:28:02;;;;;;;1.40;1.30;;;;;;;;;;5118135;28;20606;-58
2023/03/20 02:30:57;;;;;;;1.75;1.42;;;;;;;;;;5118060;28;20207;-58
2023/03/20 02:33:39;;;;;;;1.45;1.35;;;;;;;;;;5059325;28;20298;-59
2023/03/20 02:36:26;;;;;;;1.67;1.58;;;;;;;;;;5114582;28;20210;-58
2023/03/20 02:39:14;;;;;;;1.65;1.50;;;;;;;;;;5116078;28;20198;-58
2023/03/20 02:41:48;;;;;;;1.40;1.30;;;;;;;;;;5110403;28;20244;-58
2023/03/20 02:44:23;;;;;;;1.58;1.48;;;;;;;;;;5117747;28;20253;-58
2023/03/20 02:46:56;;;;;;;1.40;1.30;;;;;;;;;;5118170;28;20198;-58
2023/03/20 02:49:30;;;;;;;1.55;1.42;;;;;;;;;;5117808;28;20268;-58
2023/03/20 02:52:01;;;;;;;1.50;1.40;;;;;;;;;;5116964;28;20203;-58
2023/03/20 02:54:31;;;;;;;1.27;1.20;;;;;;;;;;5117513;28;20199;-58
2023/03/20 02:57:03;;;;;;;1.92;1.52;;;;;;;;;;5117315;28;20262;-59
2023/03/20 02:59:33;;;;;;;1.40;1.30;;;;;;;;;;5117280;28;20293;-59
2023/03/20 03:02:05;;;;;;;1.45;1.35;;;;;;;;;;5117230;28;20211;-59
2023/03/20 03:04:35;;;;;;;1.45;1.35;;;;;;;;;;5116914;28;20223;-58
2023/03/20 03:07:04;;;;;;;1.38;1.27;;;;;;;;;;5117505;28;20257;-58
2023/03/20 03:09:33;;;;;;;1.48;1.38;;;;;;;;;;5117078;28;20242;-58
2023/03/20 03:12:04;;;;;;;1.35;1.25;;;;;;;;;;5117060;28;20203;-58
2023/03/20 03:14:36;;;;;;;1.20;1.10;;;;;;;;;;5117153;28;20457;-58
2023/03/20 03:17:05;;;;;;;1.50;1.40;;;;;;;;;;5117327;28;20528;-58
2023/03/20 03:19:33;;;;;;;1.20;1.10;;;;;;;;;;5117608;28;20214;-58
2023/03/20 03:22:01;;;;;;;1.40;1.30;;;;;;;;;;5117289;28;20586;-58
2023/03/20 03:24:30;;;;;;;1.40;1.30;;;;;;;;;;5119932;28;20321;-58
2023/03/20 03:26:59;;;;;;;1.33;1.23;;;;;;;;;;5121596;28;20207;-58
2023/03/20 03:29:31;;;;;;;1.42;1.33;;;;;;;;;;5121409;28;20203;-58
2023/03/20 03:31:59;;;;;;;1.60;1.42;;;;;;;;;;5121198;28;20203;-58
2023/03/20 03:34:27;;;;;;;1.52;1.42;;;;;;;;;;5121331;28;20606;-58
2023/03/20 03:37:00;;;;;;;1.40;1.30;;;;;;;;;;5121190;28;20226;-58
2023/03/20 03:39:32;;;;;;;1.50;1.40;;;;;;;;;;5121154;28;20214;-58
2023/03/20 03:42:04;;;;;;;1.20;1.10;;;;;;;;;;5121049;28;20203;-58
2023/03/20 03:44:37;;;;;;;1.40;1.30;;;;;;;;;;5121373;28;20234;-59
2023/03/20 03:47:06;;;;;;;1.55;1.45;;;;;;;;;;5121087;28;20203;-58
2023/03/20 03:49:36;;;;;;;1.30;1.20;;;;;;;;;;5120714;28;20290;-58
2023/03/20 03:52:06;;;;;;;1.35;1.25;;;;;;;;;;5121069;28;20534;-58
2023/03/20 03:54:36;;;;;;;1.48;1.38;;;;;;;;;;5120797;28;20563;-58
2023/03/20 03:57:06;;;;;;;1.50;1.40;;;;;;;;;;5120469;28;20326;-58
2023/03/20 03:59:37;;;;;;;1.40;1.30;;;;;;;;;;5120851;28;20492;-58
2023/03/20 04:02:07;;;;;;;1.38;1.27;;;;;;;;;;5120697;28;20214;-58
2023/03/20 04:04:35;;;;;;;1.30;1.20;;;;;;;;;;5120456;28;20288;-58
2023/03/20 04:07:02;;;;;;;1.27;1.17;;;;;;;;;;5120378;28;20305;-58
2023/03/20 04:09:30;;;;;;;1.52;1.42;;;;;;;;;;5120283;28;20575;-58
2023/03/20 04:11:58;;;;;;;1.33;1.23;;;;;;;;;;5120073;28;20210;-58
2023/03/20 04:14:26;;;;;;;1.38;1.27;;;;;;;;;;5120376;28;20670;-58
2023/03/20 04:16:55;;;;;;;1.42;1.33;;;;;;;;;;5120484;28;20574;-58
2023/03/20 04:19:22;;;;;;;1.45;1.35;;;;;;;;;;5120404;28;20203;-58
2023/03/20 04:21:50;;;;;;;1.27;1.17;;;;;;;;;;5120123;28;20211;-58
2023/03/20 04:24:17;;;;;;;1.40;1.30;;;;;;;;;;5119899;28;20227;-58
2023/03/20 04:26:45;;;;;;;1.40;1.30;;;;;;;;;;5119808;28;20217;-58
2023/03/20 04:29:13;;;;;;;1.17;1.10;;;;;;;;;;5119733;28;20249;-58
2023/03/20 04:31:41;;;;;;;1.60;1.50;;;;;;;;;;5120116;28;20268;-58
2023/03/20 04:34:10;;;;;;;1.42;1.33;;;;;;;;;;5119818;28;20461;-58
2023/03/20 04:36:38;;;;;;;1.38;1.27;;;;;;;;;;5119158;28;20210;-58
2023/03/20 04:39:06;;;;;;;1.23;1.13;;;;;;;;;;5119520;28;20214;-58
2023/03/20 04:41:33;;;;;;;1.40;1.30;;;;;;;;;;5119709;28;20249;-58
2023/03/20 04:44:01;;;;;;;1.30;1.20;;;;;;;;;;5119705;28;20283;-58
2023/03/20 04:46:29;;;;;;;1.48;1.38;;;;;;;;;;5120181;28;20211;-58
2023/03/20 04:48:56;;;;;;;1.10;1.10;;;;;;;;;;5119213;28;20602;-58
2023/03/20 04:51:26;;;;;;;1.20;1.10;;;;;;;;;;5119385;28;20203;-58
2023/03/20 04:53:53;;;;;;;1.20;1.10;;;;;;;;;;5118607;28;20199;-58
2023/03/20 04:56:20;;;;;;;1.40;1.30;;;;;;;;;;5119059;28;20230;-58
2023/03/20 04:58:48;;;;;;;1.30;1.20;;;;;;;;;;5119585;28;20202;-58
2023/03/20 05:01:15;;;;;;;1.27;1.13;;;;;;;;;;5119076;28;20512;-58
2023/03/20 05:03:42;;;;;;;1.30;1.20;;;;;;;;;;5119459;28;20202;-58
2023/03/20 05:06:11;;;;;;;1.20;1.10;;;;;;;;;;5119123;28;20226;-58
2023/03/20 05:08:40;;;;;;;1.60;1.15;;;;;;;;;;5118403;28;20264;-58
2023/03/20 05:11:07;;;;;;;1.30;1.20;;;;;;;;;;5118198;28;20217;-58
2023/03/20 05:13:35;;;;;;;1.10;1.10;;;;;;;;;;5119082;28;20287;-58
2023/03/20 05:16:02;;;;;;;1.08;1.08;;;;;;;;;;5119025;28;20252;-58
2023/03/20 05:18:30;;;;;;;1.10;1.10;;;;;;;;;;5118841;28;20203;-58
2023/03/20 05:20:57;;;;;;;1.20;1.10;;;;;;;;;;5118517;28;20206;-58
2023/03/20 05:23:24;;;;;;;1.33;1.23;;;;;;;;;;5118295;28;20207;-58
2023/03/20 05:25:53;;;;;;;1.20;1.10;;;;;;;;;;5118238;28;20218;-58
2023/03/20 05:28:20;;;;;;;1.38;1.27;;;;;;;;;;5118431;28;20203;-58
2023/03/20 05:30:48;;;;;;;1.20;1.10;;;;;;;;;;5118563;28;20229;-58
2023/03/20 05:33:15;;;;;;;1.25;1.17;;;;;;;;;;5117722;28;20203;-58
2023/03/20 05:35:43;;;;;;;1.15;1.10;;;;;;;;;;5117583;28;20206;-58
2023/03/20 05:38:10;;;;;;;1.17;1.17;;;;;;;;;;5117615;28;20217;-58
2023/03/20 05:40:37;;;;;;;1.00;1.00;;;;;;;;;;5117271;28;20202;-58
2023/03/20 05:43:06;;;;;;;1.40;1.20;;;;;;;;;;5117224;28;20306;-58
2023/03/20 05:45:33;;;;;;;1.40;1.30;;;;;;;;;;5117011;28;20227;-58
2023/03/20 05:48:00;;;;;;;1.00;1.00;;;;;;;;;;5115845;28;20214;-58
2023/03/20 05:50:28;;;;;;;1.40;1.30;;;;;;;;;;5116506;28;20620;-58
2023/03/20 05:52:55;;;;;;;1.20;1.10;;;;;;;;;;5116218;28;20511;-58
2023/03/20 05:55:22;;;;;;;1.13;1.10;;;;;;;;;;5115491;28;20194;-58
2023/03/20 05:57:50;;;;;;;1.27;1.10;;;;;;;;;;5116005;28;20210;-58
2023/03/20 06:00:19;;;;;;;1.13;1.02;;;;;;;;;;5115799;28;20202;-58
2023/03/20 06:02:47;;;;;;;1.27;1.17;;;;;;;;;;5115601;28;20331;-58
2023/03/20 06:05:14;;;;;;;1.20;1.10;;;;;;;;;;5115290;28;20234;-58
2023/03/20 06:07:41;;;;;;;1.13;1.10;;;;;;;;;;5115792;28;20268;-58
2023/03/20 06:10:09;;;;;;;1.00;1.00;;;;;;;;;;5116163;28;20210;-58
2023/03/20 06:12:37;;;;;;;1.00;1.00;;;;;;;;;;5115102;28;20207;-58
2023/03/20 06:15:05;;;;;;;1.30;1.20;;;;;;;;;;5115264;28;20209;-58
2023/03/20 06:17:34;;;;;;;1.13;1.02;;;;;;;;;;5115053;28;20203;-58
2023/03/20 06:20:01;;;;;;;0.80;0.80;;;;;;;;;;5115400;28;20199;-58
2023/03/20 06:22:28;;;;;;;1.20;1.10;;;;;;;;;;5115573;28;20202;-58
2023/03/20 06:24:56;;;;;;;0.90;0.90;;;;;;;;;;5114000;28;20665;-58
2023/03/20 06:27:24;;;;;;;1.10;1.10;;;;;;;;;;5114597;28;20581;-58
2023/03/20 06:29:51;;;;;;;0.90;0.90;;;;;;;;;;5115559;28;20368;-58
2023/03/20 06:32:18;;;;;;;1.15;1.05;;;;;;;;;;5114084;28;20595;-58
2023/03/20 06:34:47;;;;;;;1.20;1.10;;;;;;;;;;5114631;28;20207;-59
2023/03/20 06:37:14;;;;;;;1.20;1.10;;;;;;;;;;5114020;28;20538;-58
2023/03/20 06:39:42;;;;;;;1.10;1.00;;;;;;;;;;5113425;28;20509;-58
2023/03/20 06:42:09;;;;;;;1.20;1.10;;;;;;;;;;5114517;28;20489;-58
2023/03/20 06:44:36;;;;;;;1.30;0.98;;;;;;;;;;5113503;28;20269;-58
2023/03/20 06:47:04;;;;;;;1.30;1.20;;;;;;;;;;5113045;28;20203;-58
2023/03/20 06:49:31;;;;;;;0.90;0.90;;;;;;;;;;5113759;28;20540;-58
2023/03/20 06:52:00;;;;;;;1.10;1.00;;;;;;;;;;5112957;28;20482;-58
2023/03/20 06:54:28;;;;;;;1.20;1.10;;;;;;;;;;5115083;28;20206;-58
2023/03/20 06:56:55;;;;;;;1.20;1.13;;;;;;;;;;5114341;28;20238;-58
2023/03/20 06:59:22;;;;;;;1.20;1.10;;;;;;;;;;5116540;28;20202;-59
2023/03/20 07:01:51;;;;;;;1.00;0.93;;;;;;;;;;5118940;28;20503;-59
2023/03/20 07:04:19;;;;;;;1.17;1.08;;;;;;;;;;5118375;28;20506;-59
2023/03/20 07:06:46;;;;;;;1.45;1.00;;;;;;;;;;5118618;28;20213;-59
2023/03/20 07:09:16;;;;;;;1.52;1.10;;;;;;;;;;5118430;28;20199;-59
2023/03/20 07:11:44;;;;;;;1.80;1.13;;;;;;;;;;5118855;28;20242;-59
2023/03/20 07:14:12;;;;;;;1.00;1.00;;;;;;;;;;5118879;28;20261;-59
2023/03/20 07:16:39;;;;;;;0.95;0.90;;;;;;;;;;5119029;28;20213;-59
2023/03/20 07:19:06;;;;;;;1.10;1.00;;;;;;;;;;5117681;28;20195;-58
2023/03/20 07:21:34;;;;;;;1.00;1.00;;;;;;;;;;5118697;28;20203;-58
2023/03/20 07:24:01;;;;;;;1.00;1.00;;;;;;;;;;5118824;28;20199;-58
2023/03/20 07:26:30;;;;;;;1.10;1.00;;;;;;;;;;5118517;28;20223;-58
2023/03/20 07:28:57;;;;;;;1.10;1.00;;;;;;;;;;5119121;28;20199;-58
2023/03/20 07:31:25;;;;;;;0.95;0.95;;;;;;;;;;5118759;28;20594;-58
2023/03/20 07:33:53;;;;;;;1.77;1.10;;;;;;;;;;5119004;28;20214;-58
2023/03/20 07:36:20;;;;;;;1.08;1.00;;;;;;;;;;5119037;28;20195;-58
2023/03/20 07:38:47;;;;;;;1.75;1.00;;;;;;;;;;5118947;28;20206;-58
2023/03/20 07:41:15;;;;;;;1.25;1.15;;;;;;;;;;5118883;28;20470;-58
2023/03/20 07:43:43;;;;;;;2.15;1.00;;;;;;;;;;5118938;28;20203;-58
2023/03/20 07:46:10;;;;;;;1.17;1.08;;;;;;;;;;5119248;28;20219;-58
2023/03/20 07:48:38;;;;;;;1.05;0.90;;;;;;;;;;5119225;28;20207;-58
2023/03/20 07:51:06;;;;;;;1.38;1.27;;;;;;;;;;5118460;28;20656;-58
2023/03/20 07:53:33;;;;;;;1.20;1.10;;;;;;;;;;5118756;28;20481;-58
2023/03/20 07:56:00;;;;;;;1.40;1.30;;;;;;;;;;5118632;28;20227;-58
2023/03/20 07:58:28;;;;;;;1.73;1.15;;;;;;;;;;5118758;28;20218;-58
2023/03/20 08:00:58;;;;;;;1.20;1.10;;;;;;;;;;5119066;28;20203;-58
2023/03/20 08:03:26;;;;;;;1.67;1.20;;;;;;;;;;5117692;28;20206;-58
2023/03/20 08:05:54;;;;;;;1.60;1.10;;;;;;;;;;5114327;28;20216;-58
2023/03/20 08:08:22;;;;;;;1.40;1.30;;;;;;;;;;5097652;28;20298;-59
2023/03/20 08:10:49;;;;;;;1.20;1.10;;;;;;;;;;5095608;28;20737;-59
2023/03/20 08:13:16;;;;;;;1.42;0.90;;;;;;;;;;5104984;28;20646;-59
2023/03/20 08:15:44;;;;;;;1.17;1.08;;;;;;;;;;5101028;28;20202;-59
2023/03/20 08:18:13;;;;;;;1.20;1.10;;;;;;;;;;5103403;28;20199;-59
2023/03/20 08:20:40;;;;;;;1.20;1.10;;;;;;;;;;5097721;28;20200;-58
2023/03/20 08:23:07;;;;;;;1.33;1.10;;;;;;;;;;5109174;28;20199;-58
2023/03/20 08:25:35;;;;;;;2.10;1.30;;;;;;;;;;5118150;28;20337;-58
2023/03/20 08:28:02;;;;;;;1.00;1.00;;;;;;;;;;5114694;28;20195;-58
2023/03/20 08:30:29;;;;;;;2.35;1.23;;;;;;;;;;5116408;28;20196;-58
2023/03/20 08:32:57;;;;;;;1.50;1.20;;;;;;;;;;5111600;28;20196;-58
2023/03/20 08:35:26;;;;;;;1.40;1.30;;;;;;;;;;5097019;28;20207;-58
2023/03/20 08:37:53;;;;;;;1.30;1.13;;;;;;;;;;5098736;28;20200;-58
2023/03/20 08:40:21;;;;;;;1.35;1.25;;;;;;;;;;5113083;28;20214;-58
2023/03/20 08:42:48;;;;;;;1.40;1.30;;;;;;;;;;5096408;28;20208;-59
2023/03/20 08:45:15;;;;;;;1.50;1.40;;;;;;;;;;5096593;28;20231;-58
2023/03/20 08:47:43;;;;;;;1.40;1.30;;;;;;;;;;5097129;28;20260;-58
2023/03/20 08:50:11;;;;;;;1.48;1.30;;;;;;;;;;5113182;28;20207;-58
2023/03/20 08:52:42;;;;;;;1.40;1.23;;;;;;;;;;5115730;28;20470;-59
2023/03/20 08:55:10;;;;;;;1.60;1.50;;;;;;;;;;5116612;28;20199;-59
2023/03/20 08:57:37;;;;;;;1.38;1.27;;;;;;;;;;5110459;28;20195;-59
2023/03/20 09:00:06;;;;;;;1.40;1.30;;;;;;;;;;5102443;28;20304;-59
2023/03/20 09:02:33;;;;;;;1.55;1.45;;;;;;;;;;5107347;28;20589;-59
2023/03/20 09:05:00;;;;;;;1.90;1.70;;;;;;;;;;5105298;28;20513;-58
2023/03/20 09:07:27;;;;;;;1.73;1.60;;;;;;;;;;5096834;28;20232;-58
2023/03/20 09:09:57;;;;;;;2.13;1.70;;;;;;;;;;5096896;28;20211;-58
2023/03/20 09:12:24;;;;;;;1.70;1.60;;;;;;;;;;5113887;28;20209;-58
2023/03/20 09:14:51;;;;;;;1.95;1.48;;;;;;;;;;5097531;28;20546;-58
2023/03/20 09:17:18;;;;;;;1.40;1.30;;;;;;;;;;5116139;28;20689;-58
2023/03/20 09:19:46;;;;;;;1.60;1.50;;;;;;;;;;5117171;28;20202;-58
2023/03/20 09:22:13;;;;;;;1.60;1.50;;;;;;;;;;5098011;28;20204;-59
2023/03/20 09:24:41;;;;;;;1.52;1.42;;;;;;;;;;5091806;28;20192;-59
2023/03/20 09:27:12;;;;;;;1.63;1.52;;;;;;;;;;5101571;28;20649;-59
2023/03/20 09:29:40;;;;;;;1.58;1.48;;;;;;;;;;5116072;28;20227;-59
2023/03/20 09:32:08;;;;;;;1.60;1.50;;;;;;;;;;5116256;28;20459;-59
2023/03/20 09:34:35;;;;;;;1.40;1.30;;;;;;;;;;5105135;28;20615;-58
2023/03/20 09:37:03;;;;;;;1.63;1.40;;;;;;;;;;5095505;28;20520;-58
2023/03/20 09:39:30;;;;;;;1.90;1.80;;;;;;;;;;5101439;28;20513;-58
2023/03/20 09:42:00;;;;;;;1.50;1.40;;;;;;;;;;5107408;28;20231;-58
2023/03/20 09:44:39;;;;;;;1.70;1.60;;;;;;;;;;5095420;28;20234;-58
2023/03/20 09:47:10;;;;;;;1.70;1.60;;;;;;;;;;5108940;28;20253;-58
2023/03/20 09:49:45;;;;;;;1.73;1.60;;;;;;;;;;5109488;28;20508;-58
2023/03/20 09:52:19;;;;;;;2.22;1.77;;;;;;;;;;5107640;28;20249;-59
2023/03/20 09:54:48;;;;;;;1.55;1.45;;;;;;;;;;5076033;28;20461;-58
2023/03/20 09:57:18;;;;;;;1.75;1.58;;;;;;;;;;5085926;28;20222;-58
2023/03/20 09:59:47;;;;;;;1.70;1.60;;;;;;;;;;5115866;28;20234;-58
2023/03/20 10:02:18;;;;;;;8.93;5.70;;;;;;;;;;5100671;28;20199;-58
2023/03/20 10:04:47;;;;;;;6.72;4.40;;;;;;;;;;5075281;28;20291;-58
2023/03/20 10:07:16;;;;;;;4.57;3.50;;;;;;;;;;5083984;28;20219;-58
2023/03/20 10:09:44;;;;;;;5.05;3.30;;;;;;;;;;5116093;28;20594;-58
2023/03/20 10:12:23;;;;;;;5.53;3.50;;;;;;;;;;5115428;28;20791;-58
2023/03/20 10:14:57;;;;;;;3.67;3.08;;;;;;;;;;5115698;28;20202;-58
2023/03/20 10:17:37;;;;;;;3.63;2.95;;;;;;;;;;5109772;28;20197;-58
2023/03/20 10:20:23;;;;;;;5.88;3.65;;;;;;;;;;5095913;28;20207;-58
2023/03/20 10:22:54;;;;;;;5.18;3.22;;;;;;;;;;5094567;28;20501;-58
2023/03/20 10:25:26;;;;;;;5.13;3.28;;;;;;;;;;5098062;28;20190;-58
2023/03/20 10:27:58;;;;;;;5.10;2.95;;;;;;;;;;5102508;28;20200;-58
2023/03/20 10:30:46;;;;;;;3.50;2.85;;;;;;;;;;5098848;28;20231;-58
2023/03/20 10:33:18;;;;;;;6.40;3.00;;;;;;;;;;5094104;28;20197;-58
2023/03/20 10:35:47;;;;;;;4.65;2.90;;;;;;;;;;5094877;28;20567;-59
2023/03/20 10:38:21;;;;;;;3.42;3.13;;;;;;;;;;5097311;28;20264;-59
2023/03/20 10:40:48;;;;;;;3.97;3.00;;;;;;;;;;5114928;28;20203;-59
2023/03/20 10:43:17;;;;;;;5.18;2.92;;;;;;;;;;5107304;28;20215;-59
2023/03/20 10:45:47;;;;;;;4.72;2.90;;;;;;;;;;5073591;28;20228;-59
2023/03/20 10:48:17;;;;;;;3.28;2.97;;;;;;;;;;5093943;28;20192;-59
2023/03/20 10:50:47;;;;;;;3.85;2.95;;;;;;;;;;5109616;28;20206;-58
2023/03/20 10:53:21;;;;;;;3.75;3.25;;;;;;;;;;5114571;28;20203;-58
2023/03/20 10:55:49;;;;;;;4.70;2.70;;;;;;;;;;5113744;28;20234;-58
2023/03/20 10:58:20;;;;;;;4.53;2.63;;;;;;;;;;5093623;28;20215;-58
2023/03/20 11:00:49;;;;;;;4.80;2.90;;;;;;;;;;5073975;28;20265;-58
2023/03/20 11:03:21;;;;;;;3.22;2.75;;;;;;;;;;5109272;28;20221;-58
2023/03/20 11:05:49;;;;;;;4.45;2.90;;;;;;;;;;5113408;28;20246;-58
2023/03/20 11:08:17;;;;;;;3.35;2.78;;;;;;;;;;5114132;28;20234;-58
2023/03/20 11:10:45;;;;;;;4.53;2.67;;;;;;;;;;5109787;28;20202;-58
2023/03/20 11:13:18;;;;;;;3.95;2.78;;;;;;;;;;5093201;28;20212;-58
2023/03/20 11:15:46;;;;;;;3.78;2.75;;;;;;;;;;5103154;28;20253;-58
2023/03/20 11:18:16;;;;;;;3.70;2.58;;;;;;;;;;5093968;28;20298;-58
2023/03/20 11:20:46;;;;;;;3.33;2.70;;;;;;;;;;5106659;28;20210;-58
2023/03/20 11:23:16;;;;;;;3.83;2.63;;;;;;;;;;5099832;28;20286;-58
2023/03/20 11:25:48;;;;;;;4.28;2.80;;;;;;;;;;5094290;28;20672;-58
2023/03/20 11:28:19;;;;;;;2.83;2.63;;;;;;;;;;5092832;28;20208;-58
2023/03/20 11:30:47;;;;;;;2.88;2.45;;;;;;;;;;5100861;28;20195;-58
2023/03/20 11:33:16;;;;;;;3.03;2.50;;;;;;;;;;5113989;28;20215;-58
2023/03/20 11:35:46;;;;;;;2.83;2.58;;;;;;;;;;5113227;28;20462;-58
2023/03/20 11:38:15;;;;;;;2.97;2.67;;;;;;;;;;5100272;28;20286;-58
2023/03/20 11:40:42;;;;;;;3.25;2.50;;;;;;;;;;5112710;28;20202;-58
2023/03/20 11:43:11;;;;;;;3.20;2.40;;;;;;;;;;5110012;28;20202;-58
2023/03/20 11:45:40;;;;;;;2.63;2.35;;;;;;;;;;5110482;28;20475;-58
2023/03/20 11:48:14;;;;;;;3.40;2.63;;;;;;;;;;5117680;28;20298;-58
2023/03/20 11:50:45;;;;;;;2.63;2.30;;;;;;;;;;5118447;28;20214;-58
2023/03/20 11:53:22;;;;;;;2.55;2.35;;;;;;;;;;5106860;28;20664;-58
2023/03/20 11:55:59;;;;;;;2.55;2.25;;;;;;;;;;5117812;28;20226;-58
2023/03/20 11:58:28;;;;;;;3.05;2.05;;;;;;;;;;5109723;28;20290;-58
2023/03/20 12:00:56;;;;;;;2.65;2.45;;;;;;;;;;5095802;28;20474;-58
2023/03/20 12:03:44;;;;;;;2.65;2.45;;;;;;;;;;5095254;28;20192;-58
2023/03/20 12:06:17;;;;;;;2.80;2.30;;;;;;;;;;5084655;28;20836;-58
2023/03/20 12:08:47;;;;;;;2.35;2.10;;;;;;;;;;5117301;28;20563;-58
2023/03/20 12:11:29;;;;;;;2.42;2.22;;;;;;;;;;5117259;28;20211;-58
2023/03/20 12:13:59;;;;;;;2.38;2.00;;;;;;;;;;5116351;28;20206;-58
2023/03/20 12:16:29;;;;;;;2.53;2.30;;;;;;;;;;5104940;28;20198;-58
2023/03/20 12:18:58;;;;;;;2.75;1.83;;;;;;;;;;5108390;28;20206;-58
2023/03/20 12:21:29;;;;;;;2.28;2.08;;;;;;;;;;5101180;28;20204;-58
2023/03/20 12:24:00;;;;;;;2.13;1.90;;;;;;;;;;5095982;28;20204;-58
2023/03/20 12:26:32;;;;;;;2.22;2.00;;;;;;;;;;5096733;28;20630;-58
2023/03/20 12:29:04;;;;;;;2.63;2.10;;;;;;;;;;5102852;28;20195;-58
2023/03/20 12:31:33;;;;;;;2.42;2.22;;;;;;;;;;5117072;28;20310;-58
2023/03/20 12:34:04;;;;;;;2.65;2.10;;;;;;;;;;5100370;28;20200;-58
2023/03/20 12:36:34;;;;;;;3.03;2.08;;;;;;;;;;5095644;28;20203;-58
2023/03/20 12:39:03;;;;;;;2.53;2.33;;;;;;;;;;5095344;28;20258;-58
2023/03/20 12:41:34;;;;;;;2.28;2.08;;;;;;;;;;5103946;28;20202;-59
2023/03/20 12:44:09;;;;;;;2.55;2.00;;;;;;;;;;5116926;28;20226;-59
2023/03/20 12:46:41;;;;;;;2.50;2.30;;;;;;;;;;5105037;28;20301;-58
2023/03/20 12:49:16;;;;;;;2.35;2.15;;;;;;;;;;5075836;28;20618;-58
2023/03/20 12:51:51;;;;;;;2.10;1.73;;;;;;;;;;5109598;28;20503;-58
2023/03/20 12:54:24;;;;;;;2.38;2.17;;;;;;;;;;5086675;28;20672;-59
2023/03/20 12:56:58;;;;;;;2.13;1.95;;;;;;;;;;5099671;28;20231;-59
2023/03/20 12:59:29;;;;;;;2.13;1.92;;;;;;;;;;5106257;28;20207;-59
2023/03/20 13:02:00;;;;;;;2.72;1.88;;;;;;;;;;5109714;28;20743;-59
2023/03/20 13:04:40;;;;;;;2.47;2.17;;;;;;;;;;5097735;28;20291;-59
2023/03/20 13:07:15;;;;;;;2.40;2.20;;;;;;;;;;5095757;28;20312;-59
2023/03/20 13:09:50;;;;;;;2.90;2.08;;;;;;;;;;5092371;28;20195;-59
2023/03/20 13:12:25;;;;;;;3.85;2.00;;;;;;;;;;5096550;28;20501;-59
2023/03/20 13:14:57;;;;;;;2.78;2.10;;;;;;;;;;5093731;28;20206;-59
2023/03/20 13:17:29;;;;;;;2.60;2.22;;;;;;;;;;5092324;28;20192;-60
2023/03/20 13:20:03;;;;;;;2.30;2.10;;;;;;;;;;5092944;28;20286;-60
2023/03/20 13:22:36;;;;;;;3.70;2.28;;;;;;;;;;5094021;28;20206;-59
2023/03/20 13:25:06;;;;;;;2.20;2.00;;;;;;;;;;5094786;28;20603;-59
2023/03/20 13:27:38;;;;;;;3.30;2.10;;;;;;;;;;5095340;28;20235;-59
2023/03/20 13:30:11;;;;;;;3.28;2.20;;;;;;;;;;5104463;28;20198;-59
2023/03/20 13:32:44;;;;;;;3.35;2.30;;;;;;;;;;5091751;28;20211;-59
2023/03/20 13:35:29;;;;;;;3.40;2.33;;;;;;;;;;5093350;28;20538;-58
2023/03/20 13:37:59;;;;;;;4.97;1.90;;;;;;;;;;5077880;28;20606;-58
2023/03/20 13:40:27;;;;;;;2.95;2.30;;;;;;;;;;5107823;28;20199;-58
2023/03/20 13:42:58;;;;;;;2.33;2.13;;;;;;;;;;5094219;28;20199;-59
2023/03/20 13:45:28;;;;;;;2.15;1.95;;;;;;;;;;5101149;28;20527;-59
2023/03/20 13:47:56;;;;;;;2.42;2.22;;;;;;;;;;5113671;28;20287;-59
2023/03/20 13:50:31;;;;;;;3.03;2.15;;;;;;;;;;5096007;28;20200;-59
2023/03/20 13:53:03;;;;;;;3.05;2.28;;;;;;;;;;5093528;28;20207;-59
2023/03/20 13:55:32;;;;;;;2.40;2.20;;;;;;;;;;5102730;28;20249;-59
2023/03/20 13:58:07;;;;;;;2.38;2.17;;;;;;;;;;5093223;28;20198;-59
2023/03/20 14:00:38;;;;;;;2.30;2.10;;;;;;;;;;5109336;28;20199;-59
2023/03/20 14:03:15;;;;;;;2.30;1.98;;;;;;;;;;5073879;28;20208;-59
2023/03/20 14:05:43;;;;;;;2.85;2.00;;;;;;;;;;5074614;28;20205;-59
2023/03/20 14:08:31;;;;;;;2.75;2.10;;;;;;;;;;5094664;28;20229;-59
2023/03/20 14:11:06;;;;;;;3.22;2.22;;;;;;;;;;5114422;28;20207;-59
2023/03/20 14:13:34;;;;;;;2.13;2.00;;;;;;;;;;5113306;28;20542;-59
2023/03/20 14:16:03;;;;;;;2.63;2.42;;;;;;;;;;5113980;28;20570;-59
2023/03/20 14:18:31;;;;;;;2.70;2.00;;;;;;;;;;5100030;28;20200;-59
2023/03/20 14:21:00;;;;;;;3.05;2.05;;;;;;;;;;5094613;28;20230;-59
2023/03/20 14:23:34;;;;;;;2.80;2.03;;;;;;;;;;5093702;28;20203;-59
2023/03/20 14:26:02;;;;;;;1.98;1.80;;;;;;;;;;5093580;28;20199;-58
2023/03/20 14:28:33;;;;;;;2.15;1.95;;;;;;;;;;5091914;28;20497;-59
2023/03/20 14:31:21;;;;;;;2.20;2.05;;;;;;;;;;5084863;28;20217;-59
2023/03/20 14:33:53;;;;;;;3.72;2.08;;;;;;;;;;5104002;28;20646;-59
2023/03/20 14:36:22;;;;;;;2.30;2.10;;;;;;;;;;5101426;28;20207;-58
2023/03/20 14:39:00;;;;;;;2.85;2.65;;;;;;;;;;5094212;28;20570;-58
2023/03/20 14:41:31;;;;;;;2.00;1.90;;;;;;;;;;5104878;28;20640;-58
2023/03/20 14:44:03;;;;;;;2.30;2.10;;;;;;;;;;5083448;28;20208;-58
2023/03/20 14:46:35;;;;;;;2.42;2.08;;;;;;;;;;5113432;28;20199;-58
2023/03/20 14:49:05;;;;;;;2.38;2.17;;;;;;;;;;5094621;28;20207;-58
2023/03/20 14:51:34;;;;;;;2.33;2.13;;;;;;;;;;5093825;28;20200;-58
2023/03/20 14:54:16;;;;;;;2.47;2.28;;;;;;;;;;5093899;28;20305;-58
2023/03/20 14:56:45;;;;;;;2.30;2.00;;;;;;;;;;5092191;28;20235;-58
2023/03/20 14:59:13;;;;;;;2.75;2.00;;;;;;;;;;5093338;28;20207;-58